createdAt,value
2023-04-08T00:03:11.081Z,102288.75
2023-04-08T00:08:07.735Z,102280.09
2023-04-08T00:13:04.232Z,102292.06
2023-04-08T00:18:00.992Z,102301.13
2023-04-08T00:22:57.559Z,102292.97
2023-04-08T00:27:53.991Z,102303.41
2023-04-08T00:32:50.735Z,102294.44
2023-04-08T00:37:47.913Z,102292.41
2023-04-08T00:42:44.339Z,102304.13
2023-04-08T00:47:41.130Z,102304.78
2023-04-08T00:52:37.660Z,102305.31
2023-04-08T00:57:34.299Z,102299.00
2023-04-08T01:02:45.855Z,102303.75
2023-04-08T01:07:48.184Z,102310.03
2023-04-08T01:12:56.013Z,102308.19
2023-04-08T01:17:56.293Z,102311.25
2023-04-08T01:23:23.806Z,102301.44
2023-04-08T01:28:22.225Z,102304.91
2023-04-08T01:33:19.634Z,102300.84
2023-04-08T01:38:19.634Z,102306.22
2023-04-08T01:43:17.731Z,102299.69
2023-04-08T01:48:15.730Z,102299.22
2023-04-08T01:53:12.840Z,102294.44
2023-04-08T01:58:14.452Z,102290.03
2023-04-08T02:03:13.096Z,102280.94
2023-04-08T02:08:09.587Z,102290.81
2023-04-08T02:13:06.293Z,102285.47
2023-04-08T02:18:17.059Z,102289.38
2023-04-08T02:23:20.745Z,102280.44
2023-04-08T02:28:18.855Z,102280.63
2023-04-08T02:33:19.322Z,102282.25
2023-04-08T02:38:15.816Z,102279.13
2023-04-08T02:43:12.242Z,102281.59
2023-04-08T02:48:08.736Z,102285.22
2023-04-08T02:53:05.450Z,102295.63
2023-04-08T02:58:01.916Z,102295.63
2023-04-08T03:02:58.539Z,102285.88
2023-04-08T03:07:55.314Z,102296.75
2023-04-08T03:12:51.725Z,102296.09
2023-04-08T03:17:48.242Z,102302.16
2023-04-08T03:22:44.738Z,102308.59
2023-04-08T03:27:41.179Z,102324.69
2023-04-08T03:32:37.755Z,102320.41
2023-04-08T03:37:34.207Z,102328.31
2023-04-08T03:42:31.025Z,102335.06
2023-04-08T03:47:27.493Z,102335.97
2023-04-08T03:52:24.969Z,102337.41
2023-04-08T03:57:21.388Z,102335.97
2023-04-08T04:02:17.877Z,102348.88
2023-04-08T04:07:14.403Z,102349.19
2023-04-08T04:12:10.780Z,102352.41
2023-04-08T04:17:07.211Z,102353.78
2023-04-08T04:22:03.641Z,102359.06
2023-04-08T04:27:00.058Z,102356.75
2023-04-08T04:31:56.442Z,102361.06
2023-04-08T04:36:52.926Z,102361.41
2023-04-08T04:41:49.414Z,102370.59
2023-04-08T04:46:45.876Z,102371.69
2023-04-08T04:51:42.427Z,102384.63
2023-04-08T04:56:38.829Z,102390.19
2023-04-08T05:01:35.371Z,102392.31
2023-04-08T05:06:31.898Z,102398.97
2023-04-08T05:11:28.302Z,102402.16
2023-04-08T05:16:24.890Z,102393.94
2023-04-08T05:21:21.402Z,102398.41
2023-04-08T05:26:19.335Z,102398.41
2023-04-08T05:31:17.462Z,102402.13
2023-04-08T05:36:15.061Z,102410.47
2023-04-08T05:41:11.525Z,102413.00
2023-04-08T05:46:09.207Z,102413.81
2023-04-08T05:51:05.877Z,102419.22
2023-04-08T05:56:02.293Z,102421.56
2023-04-08T06:00:58.816Z,102436.91
2023-04-08T06:05:55.250Z,102429.13
2023-04-08T06:10:52.422Z,102430.38
2023-04-08T06:15:49.821Z,102440.66
2023-04-08T06:20:46.394Z,102448.72
2023-04-08T06:25:42.901Z,102446.28
2023-04-08T06:30:39.405Z,102445.81
2023-04-08T06:35:37.375Z,102457.63
2023-04-08T06:40:33.844Z,102460.16
2023-04-08T06:45:30.274Z,102469.16
2023-04-08T06:50:26.751Z,102471.88
2023-04-08T06:55:23.185Z,102477.50
2023-04-08T07:00:19.655Z,102483.19
2023-04-08T07:05:16.536Z,102487.31
2023-04-08T07:10:13.354Z,102493.31
2023-04-08T07:15:10.386Z,102495.47
2023-04-08T07:20:07.482Z,102491.13
2023-04-08T07:25:04.375Z,102490.88
2023-04-08T07:30:01.539Z,102496.41
2023-04-08T07:34:59.532Z,102496.09
2023-04-08T07:39:55.973Z,102499.59
2023-04-08T07:44:52.436Z,102503.97
2023-04-08T07:49:48.975Z,102511.91
2023-04-08T07:54:45.460Z,102523.50
2023-04-08T07:59:41.907Z,102527.84
2023-04-08T08:04:38.500Z,102537.06
2023-04-08T08:09:36.145Z,102539.66
2023-04-08T08:14:32.590Z,102549.34
2023-04-08T08:19:29.025Z,102539.38
2023-04-08T08:24:26.022Z,102543.63
2023-04-08T08:29:22.425Z,102542.28
2023-04-08T08:34:18.865Z,102549.44
2023-04-08T08:39:15.418Z,102551.03
2023-04-08T08:44:12.727Z,102552.84
2023-04-08T08:49:09.364Z,102550.88
2023-04-08T08:54:05.841Z,102560.94
2023-04-08T08:59:02.334Z,102563.81
2023-04-08T09:04:10.306Z,102560.19
2023-04-08T09:09:10.192Z,102563.81
2023-04-08T09:14:26.331Z,102558.94
2023-04-08T09:19:22.761Z,102567.22
2023-04-08T09:24:28.969Z,102583.06
2023-04-08T09:29:27.616Z,102578.94
2023-04-08T09:34:27.388Z,102578.22
2023-04-08T09:39:24.246Z,102581.50
2023-04-08T09:44:22.053Z,102589.84
2023-04-08T09:49:27.171Z,102589.41
2023-04-08T09:54:37.074Z,102590.44
2023-04-08T09:59:36.746Z,102595.66
2023-04-08T10:04:38.187Z,102591.94
2023-04-08T10:09:34.874Z,102595.88
2023-04-08T10:14:31.343Z,102591.63
2023-04-08T10:19:41.195Z,102591.34
2023-04-08T10:24:37.659Z,102592.88
2023-04-08T10:29:34.219Z,102591.88
2023-04-08T10:34:30.870Z,102591.38
2023-04-08T10:39:27.510Z,102592.69
2023-04-08T10:44:26.953Z,102602.38
2023-04-08T10:49:33.225Z,102600.22
2023-04-08T10:54:29.680Z,102609.97
2023-04-08T10:59:31.976Z,102602.59
2023-04-08T11:04:28.518Z,102606.56
2023-04-08T11:09:25.099Z,102612.91
2023-04-08T11:14:22.389Z,102608.41
2023-04-08T11:19:19.832Z,102607.88
2023-04-08T11:24:16.577Z,102617.28
2023-04-08T11:29:16.746Z,102608.69
2023-04-08T11:34:22.616Z,102611.69
2023-04-08T11:39:22.779Z,102602.59
2023-04-08T11:44:19.244Z,102602.72
2023-04-08T11:49:16.255Z,102608.09
2023-04-08T11:54:29.539Z,102597.59
2023-04-08T11:59:28.360Z,102600.28
2023-04-08T12:04:26.126Z,102611.25
2023-04-08T12:09:22.679Z,102614.56
2023-04-08T12:14:19.090Z,102616.97
2023-04-08T12:19:15.541Z,102617.34
2023-04-08T12:24:11.951Z,102620.06
2023-04-08T12:29:11.586Z,102627.41
2023-04-08T12:34:08.107Z,102615.88
2023-04-08T12:39:04.778Z,102619.88
2023-04-08T12:44:01.392Z,102628.00
2023-04-08T12:49:04.366Z,102622.81
2023-04-08T12:54:03.487Z,102628.16
2023-04-08T12:59:01.007Z,102626.09
2023-04-08T13:03:57.774Z,102621.53
2023-04-08T13:08:54.729Z,102637.50
2023-04-08T13:13:51.148Z,102628.56
2023-04-08T13:18:47.544Z,102633.56
2023-04-08T13:23:44.009Z,102640.91
2023-04-08T13:28:53.748Z,102636.38
2023-04-08T13:33:50.561Z,102635.66
2023-04-08T13:38:47.012Z,102641.72
2023-04-08T13:43:43.401Z,102631.91
2023-04-08T13:48:39.924Z,102630.06
2023-04-08T13:53:36.710Z,102628.06
2023-04-08T13:58:33.166Z,102635.34
2023-04-08T14:03:29.593Z,102633.19
2023-04-08T14:08:26.118Z,102627.47
2023-04-08T14:13:22.754Z,102636.47
2023-04-08T14:18:19.759Z,102633.88
2023-04-08T14:23:16.769Z,102631.72
2023-04-08T14:28:13.194Z,102637.06
2023-04-08T14:33:09.629Z,102641.47
2023-04-08T14:38:06.170Z,102636.09
2023-04-08T14:43:03.156Z,102628.94
2023-04-08T14:47:59.666Z,102640.34
2023-04-08T14:52:56.066Z,102635.41
2023-04-08T14:57:52.457Z,102629.81
2023-04-08T15:02:48.958Z,102639.06
2023-04-08T15:07:47.211Z,102638.41
2023-04-08T15:12:43.659Z,102637.53
2023-04-08T15:17:40.070Z,102632.31
2023-04-08T15:22:36.520Z,102633.47
2023-04-08T15:27:34.178Z,102637.78
2023-04-08T15:32:30.679Z,102638.06
2023-04-08T15:37:27.714Z,102647.09
2023-04-08T15:42:24.108Z,102649.81
2023-04-08T15:47:20.486Z,102651.28
2023-04-08T15:52:16.956Z,102668.28
2023-04-08T15:57:14.328Z,102657.59
2023-04-08T16:02:12.053Z,102666.81
2023-04-08T16:07:08.536Z,102670.47
2023-04-08T16:12:04.997Z,102667.66
2023-04-08T16:17:01.489Z,102664.34
2023-04-08T16:21:58.320Z,102653.59
2023-04-08T16:26:54.685Z,102667.00
2023-04-08T16:31:53.177Z,102662.53
2023-04-08T16:36:51.706Z,102663.28
2023-04-08T16:41:48.185Z,102663.03
2023-04-08T16:46:44.596Z,102679.69
2023-04-08T16:51:41.072Z,102668.41
2023-04-08T16:56:37.463Z,102677.31
2023-04-08T17:01:33.964Z,102671.75
2023-04-08T17:06:31.164Z,102671.59
2023-04-08T17:11:27.608Z,102677.56
2023-04-08T17:16:25.256Z,102670.28
2023-04-08T17:21:21.857Z,102676.75
2023-04-08T17:26:18.234Z,102676.91
2023-04-08T17:31:14.681Z,102681.38
2023-04-08T17:36:11.966Z,102676.75
2023-04-08T17:41:08.799Z,102678.44
2023-04-08T17:46:05.228Z,102684.41
2023-04-08T17:51:06.515Z,102682.91
2023-04-08T17:56:03.003Z,102681.25
2023-04-08T18:00:59.513Z,102678.53
2023-04-08T18:05:56.142Z,102684.47
2023-04-08T18:10:52.678Z,102689.56
2023-04-08T18:15:49.146Z,102694.28
2023-04-08T18:20:45.786Z,102699.72
2023-04-08T18:25:44.460Z,102704.41
2023-04-08T18:30:42.552Z,102703.44
2023-04-08T18:35:39.014Z,102700.94
2023-04-08T18:40:35.445Z,102708.69
2023-04-08T18:45:31.970Z,102712.34
2023-04-08T18:50:28.407Z,102721.91
2023-04-08T18:55:24.873Z,102725.72
2023-04-08T19:00:21.488Z,102732.03
2023-04-08T19:05:17.941Z,102727.50
2023-04-08T19:10:14.579Z,102735.88
2023-04-08T19:15:11.207Z,102739.19
2023-04-08T19:20:08.353Z,102726.19
2023-04-08T19:25:05.128Z,102730.44
2023-04-08T19:30:01.574Z,102735.41
2023-04-08T19:34:57.993Z,102724.13
2023-04-08T19:39:54.434Z,102712.84
2023-04-08T19:44:51.567Z,102709.38
2023-04-08T19:49:47.983Z,102718.38
2023-04-08T19:54:44.390Z,102718.44
2023-04-08T19:59:40.884Z,102722.19
2023-04-08T20:04:37.452Z,102724.84
2023-04-08T20:09:33.900Z,102731.91
2023-04-08T20:14:31.202Z,102731.44
2023-04-08T20:19:28.225Z,102730.66
2023-04-08T20:24:24.739Z,102736.66
2023-04-08T20:29:21.112Z,102739.53
2023-04-08T20:34:17.532Z,102746.41
2023-04-08T20:39:13.934Z,102752.84
2023-04-08T20:44:10.616Z,102744.81
2023-04-08T20:49:07.495Z,102747.09
2023-04-08T20:54:04.796Z,102740.97
2023-04-08T20:59:01.254Z,102737.66
2023-04-08T21:03:57.754Z,102750.19
2023-04-08T21:08:54.377Z,102742.03
2023-04-08T21:13:50.940Z,102747.84
2023-04-08T21:18:47.317Z,102746.88
2023-04-08T21:23:43.754Z,102742.03
2023-04-08T21:28:40.625Z,102737.56
2023-04-08T21:33:37.315Z,102738.63
2023-04-08T21:38:34.365Z,102740.28
2023-04-08T21:43:30.811Z,102743.88
2023-04-08T21:48:27.438Z,102747.38
2023-04-08T21:53:23.882Z,102741.34
2023-04-08T21:58:20.638Z,102747.19
2023-04-08T22:03:17.341Z,102748.53
2023-04-08T22:08:14.645Z,102750.94
2023-04-08T22:13:11.483Z,102748.59
2023-04-08T22:18:08.121Z,102752.44
2023-04-08T22:23:04.614Z,102751.03
2023-04-08T22:28:01.214Z,102743.38
2023-04-08T22:32:57.694Z,102745.72
2023-04-08T22:37:54.155Z,102742.41
2023-04-08T22:42:50.642Z,102737.00
2023-04-08T22:47:47.079Z,102749.31
2023-04-08T22:52:43.475Z,102744.06
2023-04-08T22:57:39.859Z,102749.50
2023-04-08T23:02:37.521Z,102748.31
2023-04-08T23:07:34.063Z,102757.06
2023-04-08T23:12:30.541Z,102747.00
2023-04-08T23:17:27.062Z,102753.28
2023-04-08T23:22:24.260Z,102753.97
2023-04-08T23:27:20.975Z,102752.22
2023-04-08T23:32:17.420Z,102742.41
2023-04-08T23:37:13.831Z,102746.69
2023-04-08T23:42:10.297Z,102746.00
2023-04-08T23:47:06.755Z,102737.75
2023-04-08T23:52:03.253Z,102739.38
2023-04-08T23:57:01.492Z,102743.03
